Time;durP1;ratioP1;P1;durP2;ratioP2;P2;SDS_P1;SDS_P2;PMS_P1;PMS_P2;Temp;Humidity;BMP_temperature;BMP_pressure;BME280_temperature;BME280_humidity;BME280_pressure;Samples;Min_cycle;Max_cycle;Signal;HPM_P1;HPM_P2
2023/12/05 00:00:35;;;;;;;23.23;12.27;;;1.50;99.90;;;;;;4914953;29;20162;-69
2023/12/05 00:03:01;;;;;;;23.92;12.18;;;1.50;99.90;;;;;;4914738;29;20545;-68
2023/12/05 00:05:27;;;;;;;25.27;13.43;;;1.50;99.90;;;;;;4911195;29;20032;-68
2023/12/05 00:07:52;;;;;;;24.15;12.25;;;1.50;99.90;;;;;;4915373;29;20325;-68
2023/12/05 00:10:19;;;;;;;25.65;12.75;;;1.50;99.90;;;;;;4914317;29;20120;-67
2023/12/05 00:12:44;;;;;;;25.02;13.48;;;1.50;99.90;;;;;;4911851;29;20063;-69
2023/12/05 00:15:10;;;;;;;25.55;12.95;;;1.50;99.90;;;;;;4911202;29;20058;-69
2023/12/05 00:17:36;;;;;;;27.73;14.50;;;1.50;99.90;;;;;;4916056;29;20044;-69
2023/12/05 00:20:02;;;;;;;24.85;13.50;;;1.50;99.90;;;;;;4898675;29;20035;-68
2023/12/05 00:22:28;;;;;;;26.10;13.50;;;1.50;99.90;;;;;;4909165;29;20495;-68
2023/12/05 00:24:54;;;;;;;25.33;12.35;;;1.50;99.90;;;;;;4913711;29;20036;-69
2023/12/05 00:27:19;;;;;;;22.65;12.25;;;1.50;99.90;;;;;;4914539;29;20048;-68
2023/12/05 00:29:47;;;;;;;23.65;12.85;;;1.40;99.90;;;;;;4910435;29;20048;-69
2023/12/05 00:32:13;;;;;;;26.90;13.68;;;1.50;99.90;;;;;;4896910;29;20432;-69
2023/12/05 00:34:38;;;;;;;25.65;13.40;;;1.40;99.90;;;;;;4897569;29;20111;-69
2023/12/05 00:37:04;;;;;;;25.60;13.32;;;1.50;99.90;;;;;;4914527;29;20068;-69
2023/12/05 00:39:29;;;;;;;27.10;13.35;;;1.50;99.90;;;;;;4908793;29;20044;-68
2023/12/05 00:41:55;;;;;;;26.83;13.52;;;1.40;99.90;;;;;;4914565;29;20048;-69
2023/12/05 00:44:20;;;;;;;24.45;12.60;;;1.40;99.90;;;;;;4914210;29;20040;-68
2023/12/05 00:46:46;;;;;;;23.63;13.25;;;1.40;99.90;;;;;;4912386;29;20716;-68
2023/12/05 00:49:12;;;;;;;25.85;13.10;;;1.40;99.90;;;;;;4913587;29;20048;-70
2023/12/05 00:51:37;;;;;;;26.98;13.48;;;1.40;99.90;;;;;;4914629;29;20499;-68
2023/12/05 00:54:03;;;;;;;26.92;13.20;;;1.30;99.90;;;;;;4912316;29;20074;-69
2023/12/05 00:56:28;;;;;;;24.23;13.52;;;1.30;99.90;;;;;;4913672;29;20523;-70
2023/12/05 00:58:54;;;;;;;24.27;12.93;;;1.30;99.90;;;;;;4914362;29;20119;-70
2023/12/05 01:01:20;;;;;;;27.63;14.38;;;1.30;99.90;;;;;;4914340;29;20036;-70
2023/12/05 01:03:45;;;;;;;24.55;13.77;;;1.30;99.90;;;;;;4910053;29;20416;-70
2023/12/05 01:06:11;;;;;;;30.08;14.80;;;1.30;99.90;;;;;;4913869;29;20495;-69
2023/12/05 01:08:37;;;;;;;28.02;13.65;;;1.30;99.90;;;;;;4897078;29;20052;-70
2023/12/05 01:11:03;;;;;;;28.63;14.23;;;1.30;99.90;;;;;;4909334;29;20653;-70
2023/12/05 01:13:28;;;;;;;30.95;14.63;;;1.30;99.90;;;;;;4912242;29;20051;-69
2023/12/05 01:15:54;;;;;;;25.13;13.25;;;1.30;99.90;;;;;;4914038;29;20123;-70
2023/12/05 01:18:19;;;;;;;24.52;13.85;;;1.30;99.90;;;;;;4913863;29;20063;-68
2023/12/05 01:20:45;;;;;;;29.20;14.75;;;1.30;99.90;;;;;;4894312;29;20059;-69
2023/12/05 01:23:10;;;;;;;26.75;14.65;;;1.30;99.90;;;;;;4911200;29;20567;-70
2023/12/05 01:25:36;;;;;;;23.75;13.30;;;1.30;99.90;;;;;;4913705;29;20040;-68
2023/12/05 01:28:02;;;;;;;25.05;12.95;;;1.30;99.90;;;;;;4910511;29;20035;-69
2023/12/05 01:30:28;;;;;;;24.27;13.52;;;1.30;99.90;;;;;;4895480;29;20466;-68
2023/12/05 01:32:54;;;;;;;27.15;14.35;;;1.30;99.90;;;;;;4913218;29;20059;-69
2023/12/05 01:35:19;;;;;;;27.27;14.18;;;1.30;99.90;;;;;;4929418;29;20035;-70
2023/12/05 01:37:45;;;;;;;25.05;12.80;;;1.30;99.90;;;;;;4917431;29;20136;-68
2023/12/05 01:40:11;;;;;;;25.25;13.93;;;1.30;99.90;;;;;;4912637;29;20518;-68
2023/12/05 01:42:37;;;;;;;29.67;14.65;;;1.30;99.90;;;;;;4913354;29;20052;-68
2023/12/05 01:45:07;;;;;;;27.25;13.73;;;1.30;99.90;;;;;;4909314;29;20071;-70
2023/12/05 01:47:39;;;;;;;27.20;14.27;;;1.30;99.90;;;;;;4880056;29;20044;-68
2023/12/05 01:50:10;;;;;;;27.35;14.13;;;1.30;99.90;;;;;;4913345;29;20037;-68
2023/12/05 01:52:38;;;;;;;28.03;14.53;;;1.30;99.90;;;;;;4912884;29;20103;-70
2023/12/05 01:55:04;;;;;;;25.63;13.27;;;1.30;99.90;;;;;;4906929;29;20288;-69
2023/12/05 01:57:30;;;;;;;23.70;12.88;;;1.30;99.90;;;;;;4912739;29;20095;-70
2023/12/05 01:59:56;;;;;;;26.92;14.63;;;1.30;99.90;;;;;;4913337;29;20406;-70
2023/12/05 02:02:21;;;;;;;28.35;14.73;;;1.30;99.90;;;;;;4909016;29;20058;-70
2023/12/05 02:04:47;;;;;;;27.10;13.70;;;1.40;99.90;;;;;;4912616;29;20454;-70
2023/12/05 02:07:13;;;;;;;28.40;15.10;;;1.40;99.90;;;;;;4912754;29;20036;-69
2023/12/05 02:09:39;;;;;;;27.45;14.82;;;1.30;99.90;;;;;;4909584;29;20038;-70
2023/12/05 02:12:05;;;;;;;29.98;15.35;;;1.30;99.90;;;;;;4895365;29;20044;-68
2023/12/05 02:14:32;;;;;;;26.92;13.48;;;1.40;99.90;;;;;;4912613;29;20043;-69
2023/12/05 02:17:12;;;;;;;26.25;13.32;;;1.40;99.90;;;;;;4913061;29;20111;-68
2023/12/05 02:19:49;;;;;;;25.05;13.60;;;1.30;99.90;;;;;;4908443;29;20510;-68
2023/12/05 02:22:37;;;;;;;29.23;15.32;;;1.40;99.90;;;;;;4895199;29;20044;-68
2023/12/05 02:25:19;;;;;;;30.35;14.57;;;1.40;99.90;;;;;;4913037;29;20050;-69
2023/12/05 02:27:46;;;;;;;23.25;12.80;;;1.40;99.90;;;;;;4906678;29;20067;-69
2023/12/05 02:30:14;;;;;;;23.85;12.70;;;1.30;99.90;;;;;;4911779;29;20044;-68
2023/12/05 02:32:40;;;;;;;27.27;14.77;;;1.40;99.90;;;;;;4895105;29;20097;-70
2023/12/05 02:35:06;;;;;;;28.20;14.02;;;1.40;99.90;;;;;;4906793;29;20087;-68
2023/12/05 02:37:47;;;;;;;25.52;13.65;;;1.40;99.90;;;;;;4911914;29;20032;-69
2023/12/05 02:40:21;;;;;;;26.73;14.02;;;1.40;99.90;;;;;;4912418;29;20032;-70
2023/12/05 02:42:49;;;;;;;28.33;14.65;;;1.40;99.90;;;;;;4890040;29;20415;-68
2023/12/05 02:45:28;;;;;;;27.45;14.20;;;1.40;99.90;;;;;;4911143;29;20044;-70
2023/12/05 02:47:55;;;;;;;25.60;13.43;;;1.40;99.90;;;;;;4912536;29;20547;-68
2023/12/05 02:50:21;;;;;;;25.60;13.65;;;1.40;99.90;;;;;;4907322;29;20103;-68
2023/12/05 02:52:47;;;;;;;32.60;16.85;;;1.40;99.90;;;;;;4905681;29;20484;-69
2023/12/05 02:55:12;;;;;;;25.95;14.13;;;1.40;99.90;;;;;;4912113;29;20032;-70
2023/12/05 02:57:38;;;;;;;25.70;13.93;;;1.40;99.90;;;;;;4912566;29;20139;-69
2023/12/05 03:00:04;;;;;;;25.83;13.68;;;1.40;99.90;;;;;;4891322;29;20100;-69
2023/12/05 03:02:30;;;;;;;34.15;16.23;;;1.40;99.90;;;;;;4909838;29;20390;-69
2023/12/05 03:04:56;;;;;;;30.65;15.85;;;1.40;99.90;;;;;;4912494;29;20035;-69
2023/12/05 03:07:21;;;;;;;28.08;15.50;;;1.40;99.90;;;;;;4910063;29;20555;-69
2023/12/05 03:09:47;;;;;;;29.55;14.40;;;1.40;99.90;;;;;;4908709;29;20523;-68
2023/12/05 03:12:12;;;;;;;26.90;15.32;;;1.40;99.90;;;;;;4912044;29;20103;-68
2023/12/05 03:14:38;;;;;;;27.67;15.25;;;1.50;99.90;;;;;;4912087;29;20074;-69
2023/12/05 03:17:04;;;;;;;29.08;14.50;;;1.50;99.90;;;;;;4908411;29;20435;-68
2023/12/05 03:19:29;;;;;;;30.20;14.82;;;1.50;99.90;;;;;;4893955;29;20710;-68
2023/12/05 03:21:55;;;;;;;29.40;14.65;;;1.50;99.90;;;;;;4913252;29;20110;-68
2023/12/05 03:24:21;;;;;;;26.67;15.02;;;1.50;99.90;;;;;;4912427;29;20064;-70
2023/12/05 03:26:46;;;;;;;27.92;15.05;;;1.50;99.90;;;;;;4897759;29;20660;-69
2023/12/05 03:29:12;;;;;;;27.58;14.48;;;1.40;99.90;;;;;;4915446;29;20036;-69
2023/12/05 03:31:39;;;;;;;28.85;15.90;;;1.40;99.90;;;;;;4915829;29;20040;-69
2023/12/05 03:34:06;;;;;;;29.65;15.32;;;1.50;99.90;;;;;;4910550;29;20047;-68
2023/12/05 03:36:32;;;;;;;30.85;16.13;;;1.40;99.90;;;;;;4914273;29;20576;-69
2023/12/05 03:38:58;;;;;;;29.98;14.48;;;1.50;99.90;;;;;;4915382;29;20111;-68
2023/12/05 03:41:24;;;;;;;28.20;14.38;;;1.50;99.90;;;;;;4910771;29;20040;-70
2023/12/05 03:43:49;;;;;;;28.83;15.45;;;1.50;99.90;;;;;;4914350;29;20123;-69
2023/12/05 03:46:15;;;;;;;29.20;13.75;;;1.50;99.90;;;;;;4898486;29;20051;-69
2023/12/05 03:48:40;;;;;;;26.02;13.80;;;1.50;99.90;;;;;;4895793;29;20048;-70
2023/12/05 03:51:06;;;;;;;29.30;15.15;;;1.40;99.90;;;;;;4912979;29;20037;-68
2023/12/05 03:53:32;;;;;;;27.60;14.90;;;1.40;99.90;;;;;;4914835;29;20063;-69
2023/12/05 03:55:57;;;;;;;30.08;15.13;;;1.40;99.90;;;;;;4915668;29;20032;-69
2023/12/05 03:58:23;;;;;;;33.30;16.00;;;1.50;99.90;;;;;;4909858;29;20453;-68
2023/12/05 04:00:48;;;;;;;30.42;15.45;;;1.50;99.90;;;;;;4914496;29;20521;-68
2023/12/05 04:03:15;;;;;;;28.75;15.10;;;1.50;99.90;;;;;;4914930;29;20115;-68
2023/12/05 04:05:40;;;;;;;32.80;15.48;;;1.50;99.90;;;;;;4919346;29;20031;-70
2023/12/05 04:08:06;;;;;;;33.60;15.77;;;1.50;99.90;;;;;;4914868;29;20091;-69
2023/12/05 04:10:32;;;;;;;32.90;15.93;;;1.50;99.90;;;;;;4914376;29;20048;-69
2023/12/05 04:12:57;;;;;;;30.13;15.13;;;1.50;99.90;;;;;;4915072;29;20068;-69
2023/12/05 04:15:23;;;;;;;29.58;16.02;;;1.40;99.90;;;;;;4908923;29;20136;-70
2023/12/05 04:17:48;;;;;;;32.60;15.80;;;1.50;99.90;;;;;;4914272;29;20090;-68
2023/12/05 04:20:14;;;;;;;29.90;14.85;;;1.50;99.90;;;;;;4914960;29;20040;-69
2023/12/05 04:22:40;;;;;;;31.85;15.95;;;1.40;99.90;;;;;;4914268;29;20048;-68
2023/12/05 04:25:06;;;;;;;30.05;15.52;;;1.50;99.90;;;;;;4912262;29;20479;-68
2023/12/05 04:27:32;;;;;;;30.70;15.43;;;1.50;99.90;;;;;;4897170;29;20036;-70
2023/12/05 04:29:58;;;;;;;33.03;16.77;;;1.50;99.90;;;;;;4914822;29;20123;-70
2023/12/05 04:32:23;;;;;;;29.75;15.98;;;1.40;99.90;;;;;;4907779;29;20100;-70
2023/12/05 04:34:49;;;;;;;31.77;16.45;;;1.50;99.90;;;;;;4911269;29;20036;-68
2023/12/05 04:37:14;;;;;;;32.20;15.70;;;1.50;99.90;;;;;;4914441;29;20040;-69
2023/12/05 04:39:40;;;;;;;33.17;17.73;;;1.40;99.90;;;;;;4909657;29;20084;-70
2023/12/05 04:42:06;;;;;;;33.40;16.95;;;1.40;99.90;;;;;;4912556;29;20098;-70
2023/12/05 04:44:32;;;;;;;31.27;16.42;;;1.50;99.90;;;;;;4914079;29;20083;-69
2023/12/05 04:46:57;;;;;;;30.98;16.13;;;1.40;99.90;;;;;;4897755;29;20107;-68
2023/12/05 04:49:23;;;;;;;33.08;15.68;;;1.50;99.90;;;;;;4890395;29;20044;-68
2023/12/05 04:51:49;;;;;;;32.20;18.13;;;1.40;99.90;;;;;;4912333;29;20044;-68
2023/12/05 04:54:15;;;;;;;34.35;17.42;;;1.50;99.90;;;;;;4914268;29;20039;-68
2023/12/05 04:56:41;;;;;;;33.25;17.38;;;1.50;99.90;;;;;;4911135;29;20099;-69
2023/12/05 04:59:06;;;;;;;31.02;17.02;;;1.50;99.90;;;;;;4919021;29;20578;-70
2023/12/05 05:01:32;;;;;;;34.78;17.00;;;1.50;99.90;;;;;;4914308;29;20515;-70
2023/12/05 05:03:58;;;;;;;33.40;16.95;;;1.50;99.90;;;;;;4907998;29;20499;-70
2023/12/05 05:06:23;;;;;;;32.30;16.90;;;1.50;99.90;;;;;;4910143;29;20037;-69
2023/12/05 05:08:49;;;;;;;35.30;18.20;;;1.50;99.90;;;;;;4913726;29;20048;-70
2023/12/05 05:11:14;;;;;;;31.98;16.42;;;1.50;99.90;;;;;;4914311;29;20044;-69
2023/12/05 05:13:41;;;;;;;33.75;17.52;;;1.50;99.90;;;;;;4908787;29;20041;-70
2023/12/05 05:16:07;;;;;;;33.08;17.67;;;1.50;99.90;;;;;;4911743;29;20123;-68
2023/12/05 05:18:32;;;;;;;35.60;17.58;;;1.50;99.90;;;;;;4892890;29;20163;-68
2023/12/05 05:20:58;;;;;;;34.40;18.15;;;1.50;99.90;;;;;;4909207;29;22373;-68
2023/12/05 05:23:24;;;;;;;37.40;18.30;;;1.50;99.90;;;;;;4912901;29;20028;-69
2023/12/05 05:25:49;;;;;;;33.58;16.30;;;1.50;99.90;;;;;;4913746;29;20032;-68
2023/12/05 05:28:15;;;;;;;36.30;18.30;;;1.50;99.90;;;;;;4913724;29;20054;-68
2023/12/05 05:30:40;;;;;;;38.83;18.73;;;1.50;99.90;;;;;;4909160;29;20048;-68
2023/12/05 05:33:06;;;;;;;32.97;17.50;;;1.50;99.90;;;;;;4912454;29;20072;-70
2023/12/05 05:35:31;;;;;;;33.50;15.98;;;1.50;99.90;;;;;;4913183;29;20067;-70
2023/12/05 05:37:57;;;;;;;41.47;19.08;;;1.50;99.90;;;;;;4910968;29;20151;-70
2023/12/05 05:40:22;;;;;;;33.97;16.38;;;1.50;99.90;;;;;;4912821;29;20040;-70
2023/12/05 05:42:48;;;;;;;35.20;18.00;;;1.50;99.90;;;;;;4912855;29;20419;-69
2023/12/05 05:45:13;;;;;;;39.95;18.95;;;1.50;99.90;;;;;;4913264;29;20066;-69
2023/12/05 05:47:39;;;;;;;37.42;18.00;;;1.50;99.90;;;;;;4890951;29;20055;-70
2023/12/05 05:50:05;;;;;;;40.80;20.05;;;1.50;99.90;;;;;;4911091;29;20040;-70
2023/12/05 05:52:31;;;;;;;50.40;18.80;;;1.60;99.90;;;;;;4895838;29;20040;-69
2023/12/05 05:54:56;;;;;;;40.08;19.88;;;1.60;99.90;;;;;;4909872;29;20028;-69
2023/12/05 05:57:22;;;;;;;36.83;18.75;;;1.60;99.90;;;;;;4912360;29;20495;-68
2023/12/05 05:59:47;;;;;;;38.00;20.30;;;1.60;99.90;;;;;;4905051;29;20384;-69
2023/12/05 06:02:14;;;;;;;37.28;17.48;;;1.60;99.90;;;;;;4911526;29;20040;-68
2023/12/05 06:04:42;;;;;;;37.58;18.38;;;1.60;99.90;;;;;;4895228;29;20146;-68
2023/12/05 06:07:08;;;;;;;37.38;19.48;;;1.60;99.90;;;;;;4895139;29;20131;-68
2023/12/05 06:09:34;;;;;;;37.53;18.98;;;1.60;99.90;;;;;;4909935;29;20138;-69
2023/12/05 06:12:02;;;;;;;38.50;19.13;;;1.60;99.90;;;;;;4890125;29;20048;-70
2023/12/05 06:14:28;;;;;;;38.42;19.45;;;1.60;99.90;;;;;;4891343;29;20392;-70
2023/12/05 06:16:53;;;;;;;38.80;19.65;;;1.60;99.90;;;;;;4911125;29;20092;-69
2023/12/05 06:19:19;;;;;;;44.03;20.17;;;1.60;99.90;;;;;;4911863;29;20043;-69
2023/12/05 06:21:45;;;;;;;42.22;19.48;;;1.60;99.90;;;;;;4908371;29;20091;-70
2023/12/05 06:24:11;;;;;;;39.70;19.15;;;1.60;99.90;;;;;;4910762;29;20083;-70
2023/12/05 06:26:36;;;;;;;37.15;18.63;;;1.60;99.90;;;;;;4912473;29;20067;-70
2023/12/05 06:29:04;;;;;;;41.47;19.27;;;1.60;99.90;;;;;;4908357;29;20712;-70
2023/12/05 06:31:30;;;;;;;38.88;18.48;;;1.60;99.90;;;;;;4910819;29;20044;-68
2023/12/05 06:33:55;;;;;;;40.05;19.00;;;1.60;99.90;;;;;;4911927;29;20075;-72
2023/12/05 06:36:21;;;;;;;42.22;19.23;;;1.60;99.90;;;;;;4912698;29;20111;-69
2023/12/05 06:38:47;;;;;;;41.72;19.73;;;1.60;99.90;;;;;;4908351;29;20070;-70
2023/12/05 06:41:12;;;;;;;37.78;19.05;;;1.60;99.90;;;;;;4911649;29;20036;-69
2023/12/05 06:43:38;;;;;;;43.38;21.08;;;1.60;99.90;;;;;;4912242;29;20056;-68
2023/12/05 06:46:04;;;;;;;41.70;18.88;;;1.60;99.90;;;;;;4908921;29;20043;-69
2023/12/05 06:48:29;;;;;;;41.03;19.48;;;1.60;99.90;;;;;;4911683;29;20036;-69
2023/12/05 06:50:55;;;;;;;40.53;19.08;;;1.60;99.90;;;;;;4912738;29;20036;-69
2023/12/05 06:53:20;;;;;;;41.17;20.02;;;1.60;99.90;;;;;;4909465;29;20047;-69
2023/12/05 06:55:49;;;;;;;38.58;18.52;;;1.60;99.90;;;;;;4906138;29;20075;-69
2023/12/05 06:58:14;;;;;;;41.00;20.10;;;1.60;99.90;;;;;;4900572;29;20041;-69
2023/12/05 07:03:15;;;;;;;42.17;19.95;;;1.60;99.90;;;;;;5757297;23;20058;-68
2023/12/05 07:05:41;;;;;;;41.13;19.90;;;1.60;99.90;;;;;;4936661;29;20304;-66
2023/12/05 07:08:07;;;;;;;43.05;19.63;;;1.60;99.90;;;;;;4937367;29;20036;-67
2023/12/05 07:10:32;;;;;;;42.08;18.80;;;1.60;99.90;;;;;;4904453;29;20126;-68
2023/12/05 07:12:58;;;;;;;39.80;19.90;;;1.60;99.90;;;;;;4913708;29;20093;-68
2023/12/05 07:15:24;;;;;;;40.63;19.63;;;1.50;99.90;;;;;;4911275;29;20114;-68
2023/12/05 07:17:49;;;;;;;42.17;19.38;;;1.60;99.90;;;;;;4932125;29;20129;-68
2023/12/05 07:27:59;;;;;;;36.63;17.58;;;1.60;99.90;;;;;;4915593;29;20056;-68
2023/12/05 07:33:01;;;;;;;46.28;20.33;;;1.60;99.90;;;;;;5433641;23;19945;-67
2023/12/05 07:35:26;;;;;;;44.75;20.20;;;1.60;99.90;;;;;;4952022;29;20485;-68
2023/12/05 07:37:52;;;;;;;43.85;19.75;;;1.50;99.90;;;;;;4950427;29;20094;-67
2023/12/05 07:40:18;;;;;;;43.33;19.73;;;1.50;99.90;;;;;;5370395;23;20064;-68
2023/12/05 07:42:44;;;;;;;41.72;18.73;;;1.60;99.90;;;;;;4910755;29;20040;-67
2023/12/05 07:55:31;;;;;;;43.50;19.63;;;1.60;99.90;;;;;;5366140;23;20409;-69
2023/12/05 07:57:56;;;;;;;40.50;18.50;;;1.60;99.90;;;;;;4938064;29;20494;-69
2023/12/05 08:00:22;;;;;;;41.65;19.02;;;1.50;99.90;;;;;;4928135;29;20138;-69
2023/12/05 08:02:47;;;;;;;38.00;19.00;;;1.50;99.90;;;;;;4921108;29;20495;-67
2023/12/05 08:05:13;;;;;;;37.35;17.80;;;1.50;99.90;;;;;;4929083;29;20055;-67
2023/12/05 08:07:39;;;;;;;39.25;18.27;;;1.50;99.90;;;;;;4891256;29;20046;-68
2023/12/05 08:10:06;;;;;;;41.13;18.70;;;1.50;99.90;;;;;;4909479;29;20036;-68
2023/12/05 08:12:31;;;;;;;40.65;18.88;;;1.50;99.90;;;;;;4898700;29;20083;-67
2023/12/05 08:14:57;;;;;;;39.85;17.60;;;1.60;99.90;;;;;;4916699;29;20068;-67
2023/12/05 08:17:23;;;;;;;37.60;18.48;;;1.50;99.90;;;;;;4912946;29;20044;-69
2023/12/05 08:19:48;;;;;;;38.58;18.00;;;1.50;99.90;;;;;;4891609;29;20056;-68
2023/12/05 08:22:14;;;;;;;40.58;18.70;;;1.50;99.90;;;;;;4914304;29;20040;-68
2023/12/05 08:24:40;;;;;;;42.45;19.70;;;1.50;99.90;;;;;;4891638;29;20056;-69
2023/12/05 08:27:05;;;;;;;36.78;18.58;;;1.50;99.90;;;;;;4912372;29;20095;-69
2023/12/05 08:29:31;;;;;;;40.42;18.42;;;1.50;99.90;;;;;;4916244;29;20040;-69
2023/12/05 08:31:57;;;;;;;37.97;17.50;;;1.50;99.90;;;;;;4894707;29;20092;-69
2023/12/05 08:34:22;;;;;;;41.35;18.65;;;1.50;99.90;;;;;;4905153;29;20051;-69
2023/12/05 08:36:48;;;;;;;36.83;18.00;;;1.50;99.90;;;;;;4911544;29;20095;-69
2023/12/05 08:39:13;;;;;;;38.70;19.10;;;1.50;99.90;;;;;;4912634;29;20055;-69
2023/12/05 08:41:39;;;;;;;41.45;18.27;;;1.50;99.90;;;;;;4895677;29;20493;-69
2023/12/05 08:44:05;;;;;;;35.95;17.88;;;1.50;99.90;;;;;;4912108;29;20116;-69
2023/12/05 08:46:31;;;;;;;42.15;18.75;;;1.50;99.90;;;;;;4914244;29;20032;-67
2023/12/05 08:48:57;;;;;;;40.90;18.95;;;1.50;99.90;;;;;;4888305;29;20132;-69
2023/12/05 08:51:22;;;;;;;44.95;20.20;;;1.50;99.90;;;;;;4903759;29;20135;-69
2023/12/05 08:53:48;;;;;;;41.08;19.13;;;1.50;99.90;;;;;;4911190;29;20043;-69
2023/12/05 08:56:13;;;;;;;38.60;18.20;;;1.50;99.90;;;;;;4915198;29;20494;-68
2023/12/05 08:58:39;;;;;;;40.42;19.00;;;1.50;99.90;;;;;;4910140;29;20410;-67
2023/12/05 09:01:04;;;;;;;39.47;18.40;;;1.50;99.90;;;;;;4888876;29;20548;-67
2023/12/05 09:03:30;;;;;;;40.90;18.70;;;1.60;99.90;;;;;;4904740;29;20060;-68
2023/12/05 09:05:56;;;;;;;43.80;19.60;;;1.60;99.90;;;;;;4890927;29;20049;-68
2023/12/05 09:08:22;;;;;;;39.72;18.80;;;1.50;99.90;;;;;;4915617;29;20050;-67
2023/12/05 09:10:48;;;;;;;40.05;18.40;;;1.60;99.90;;;;;;4902760;29;20632;-69
2023/12/05 09:13:16;;;;;;;38.85;18.58;;;1.60;99.90;;;;;;4908010;29;20299;-69
2023/12/05 09:15:42;;;;;;;39.15;18.48;;;1.60;99.90;;;;;;4888104;29;20040;-69
2023/12/05 09:18:07;;;;;;;31.90;16.67;;;1.60;99.90;;;;;;4890791;29;20051;-68
2023/12/05 09:20:33;;;;;;;38.22;17.70;;;1.60;99.90;;;;;;4905397;29;20154;-69
2023/12/05 09:22:58;;;;;;;36.80;18.08;;;1.60;99.90;;;;;;4891308;29;20575;-69
2023/12/05 09:25:24;;;;;;;38.95;17.35;;;1.60;99.90;;;;;;4912394;29;20087;-69
2023/12/05 09:27:49;;;;;;;37.05;18.25;;;1.60;99.90;;;;;;4913664;29;20048;-68
2023/12/05 09:30:15;;;;;;;39.80;17.55;;;1.60;99.90;;;;;;4915111;29;20036;-67
2023/12/05 09:32:41;;;;;;;38.25;17.85;;;1.60;99.90;;;;;;4901569;29;20043;-69
2023/12/05 09:35:06;;;;;;;37.30;17.02;;;1.60;99.90;;;;;;4887761;29;20044;-67
2023/12/05 09:37:32;;;;;;;39.78;18.00;;;1.60;99.90;;;;;;4897288;29;20112;-69
2023/12/05 09:39:58;;;;;;;36.60;17.15;;;1.70;99.90;;;;;;4896387;29;20048;-69
2023/12/05 09:42:25;;;;;;;36.63;18.33;;;1.70;99.90;;;;;;4891182;29;20578;-69
2023/12/05 09:44:52;;;;;;;36.83;18.48;;;1.70;99.90;;;;;;4894765;29;20052;-69
2023/12/05 09:47:20;;;;;;;37.35;18.20;;;1.70;99.90;;;;;;4905594;29;20043;-69
2023/12/05 09:49:46;;;;;;;36.78;17.67;;;1.70;99.90;;;;;;4899833;29;20055;-69
2023/12/05 09:52:12;;;;;;;37.20;18.10;;;1.70;99.90;;;;;;4902697;29;20087;-69
2023/12/05 09:54:42;;;;;;;39.72;18.40;;;1.70;99.90;;;;;;4914937;29;20083;-69
2023/12/05 09:57:09;;;;;;;38.67;18.35;;;1.80;99.90;;;;;;4909421;29;20044;-69
2023/12/05 09:59:34;;;;;;;34.85;17.42;;;1.70;99.90;;;;;;4913121;29;20574;-69
2023/12/05 10:02:02;;;;;;;40.55;18.70;;;1.80;99.90;;;;;;4913971;29;20130;-69
2023/12/05 10:04:29;;;;;;;44.88;19.95;;;1.80;99.90;;;;;;4910297;29;20429;-69
2023/12/05 10:06:58;;;;;;;40.25;17.98;;;1.80;99.90;;;;;;4887841;29;20107;-69
2023/12/05 10:09:26;;;;;;;40.70;19.23;;;1.80;99.90;;;;;;4892091;29;20072;-69
2023/12/05 10:11:52;;;;;;;41.72;19.55;;;1.80;99.90;;;;;;4913014;29;20047;-69
2023/12/05 10:14:18;;;;;;;40.45;19.00;;;1.80;99.90;;;;;;4889408;29;20040;-69
2023/12/05 10:16:44;;;;;;;41.83;18.90;;;1.80;99.90;;;;;;4907401;29;20059;-68
2023/12/05 10:19:10;;;;;;;38.13;18.83;;;1.80;99.90;;;;;;4905143;29;20517;-69
2023/12/05 10:21:36;;;;;;;44.78;18.73;;;1.80;99.90;;;;;;4888978;29;20044;-66
2023/12/05 10:24:02;;;;;;;41.40;19.85;;;1.80;99.90;;;;;;4875484;29;20040;-68
2023/12/05 10:26:31;;;;;;;43.20;19.10;;;1.80;99.90;;;;;;4883592;29;21715;-68
2023/12/05 10:28:56;;;;;;;41.78;19.55;;;1.80;99.90;;;;;;4890390;29;20048;-69
2023/12/05 10:31:22;;;;;;;42.85;20.92;;;1.80;99.90;;;;;;4895537;29;20055;-69
2023/12/05 10:33:49;;;;;;;43.67;20.58;;;1.80;99.90;;;;;;4914242;29;20036;-68
2023/12/05 10:36:15;;;;;;;43.50;20.95;;;1.80;99.90;;;;;;4889734;29;20044;-69
2023/12/05 10:38:45;;;;;;;49.75;21.50;;;1.80;99.90;;;;;;4902262;29;20088;-69
2023/12/05 10:41:12;;;;;;;48.20;20.83;;;1.80;99.90;;;;;;4887590;29;20040;-69
2023/12/05 10:43:46;;;;;;;46.47;20.63;;;1.80;99.90;;;;;;4871504;29;20040;-67
2023/12/05 10:46:12;;;;;;;41.40;19.75;;;1.80;99.90;;;;;;4863121;29;20082;-67
2023/12/05 10:48:37;;;;;;;41.30;18.80;;;1.80;99.90;;;;;;4859752;29;20483;-66
2023/12/05 10:51:04;;;;;;;42.53;20.23;;;1.80;99.90;;;;;;4868310;29;20487;-67
2023/12/05 10:53:34;;;;;;;42.10;20.17;;;1.80;99.90;;;;;;4837020;29;20048;-69
2023/12/05 10:56:14;;;;;;;48.38;21.65;;;1.80;99.90;;;;;;4847653;29;20115;-67
2023/12/05 10:58:41;;;;;;;42.20;19.50;;;1.90;99.90;;;;;;4864473;29;20044;-68
2023/12/05 11:01:10;;;;;;;42.20;19.98;;;1.90;99.90;;;;;;4910462;29;20699;-69
2023/12/05 11:03:38;;;;;;;46.92;20.27;;;1.80;99.90;;;;;;4907278;29;20132;-69
2023/12/05 11:06:04;;;;;;;45.78;20.17;;;1.80;99.90;;;;;;4901999;29;20072;-68
2023/12/05 11:08:31;;;;;;;43.20;20.77;;;1.80;99.90;;;;;;4874944;29;20517;-69
2023/12/05 11:10:58;;;;;;;46.20;21.50;;;1.90;99.90;;;;;;4883038;29;20058;-69
2023/12/05 11:13:24;;;;;;;49.17;20.20;;;1.80;99.90;;;;;;4891998;29;20045;-69
2023/12/05 11:15:52;;;;;;;45.00;21.10;;;1.80;99.90;;;;;;4905189;29;20032;-68
2023/12/05 11:18:32;;;;;;;46.38;20.27;;;1.80;99.90;;;;;;4908776;29;20029;-69
2023/12/05 11:21:21;;;;;;;41.53;20.13;;;1.90;99.90;;;;;;4897001;29;20040;-69
2023/12/05 11:24:16;;;;;;;44.35;20.77;;;1.90;99.90;;;;;;4896612;29;20044;-69
2023/12/05 11:27:04;;;;;;;47.15;20.58;;;1.90;99.90;;;;;;4883849;29;20040;-69
2023/12/05 11:29:41;;;;;;;44.33;20.88;;;1.90;99.90;;;;;;4906319;29;20523;-69
2023/12/05 11:32:42;;;;;;;42.47;19.20;;;1.80;99.90;;;;;;4910162;29;20372;-67
2023/12/05 11:35:30;;;;;;;41.92;19.67;;;1.90;99.90;;;;;;4913755;29;20036;-68
2023/12/05 11:38:17;;;;;;;42.13;19.75;;;1.90;99.90;;;;;;4887567;29;20519;-69
2023/12/05 11:40:42;;;;;;;42.53;19.33;;;1.90;99.90;;;;;;4888965;29;20415;-67
2023/12/05 11:43:11;;;;;;;42.78;19.83;;;1.90;99.90;;;;;;4913630;29;20044;-69
2023/12/05 11:45:37;;;;;;;38.00;18.10;;;1.90;99.90;;;;;;4893819;29;20067;-68
2023/12/05 11:48:04;;;;;;;38.55;18.63;;;1.90;99.90;;;;;;4891497;29;20044;-69
2023/12/05 11:50:43;;;;;;;42.55;19.63;;;1.90;99.90;;;;;;4916647;29;20594;-69
2023/12/05 11:53:11;;;;;;;39.95;19.55;;;1.90;99.90;;;;;;4917052;29;20044;-69
2023/12/05 11:55:40;;;;;;;39.17;19.35;;;1.90;99.90;;;;;;4905110;29;20081;-68
2023/12/05 11:58:31;;;;;;;42.53;19.58;;;1.90;99.90;;;;;;4889808;29;20047;-67
2023/12/05 12:01:09;;;;;;;35.35;16.95;;;1.90;99.90;;;;;;4914441;29;20051;-69
2023/12/05 12:03:53;;;;;;;40.53;18.25;;;1.90;99.90;;;;;;4911910;29;20089;-68
2023/12/05 12:06:21;;;;;;;41.28;19.05;;;1.90;99.90;;;;;;4899641;29;20040;-67
2023/12/05 12:08:49;;;;;;;41.63;18.33;;;1.90;99.90;;;;;;4915203;29;20044;-66
2023/12/05 12:11:14;;;;;;;41.80;18.75;;;1.90;99.90;;;;;;4893866;29;20049;-69
2023/12/05 12:13:40;;;;;;;43.65;21.13;;;1.90;99.90;;;;;;4909213;29;20040;-69
2023/12/05 12:16:06;;;;;;;40.08;19.38;;;2.00;99.90;;;;;;4898995;29;20044;-69
2023/12/05 12:18:32;;;;;;;42.35;19.60;;;2.00;99.90;;;;;;4886047;29;20040;-69
2023/12/05 12:20:59;;;;;;;45.15;20.55;;;1.90;99.90;;;;;;4902045;29;20044;-69
2023/12/05 12:23:25;;;;;;;40.90;19.33;;;2.00;99.90;;;;;;4912105;29;20059;-69
2023/12/05 12:25:57;;;;;;;42.88;19.08;;;2.00;99.90;;;;;;4902912;29;20048;-66
2023/12/05 12:28:28;;;;;;;42.13;18.52;;;2.00;99.90;;;;;;4890753;29;20059;-67
2023/12/05 12:30:58;;;;;;;42.10;19.30;;;1.90;99.90;;;;;;4883986;29;20048;-66
2023/12/05 12:33:36;;;;;;;40.53;19.38;;;1.90;99.90;;;;;;4907665;29;20140;-65
2023/12/05 12:36:03;;;;;;;38.80;19.98;;;2.00;99.90;;;;;;4895157;29;20681;-67
2023/12/05 12:38:28;;;;;;;40.92;18.20;;;1.90;99.90;;;;;;4873913;29;20403;-64
2023/12/05 12:40:54;;;;;;;44.28;19.98;;;1.90;99.90;;;;;;4905745;29;20111;-65
2023/12/05 12:43:22;;;;;;;35.10;15.52;;;1.90;99.90;;;;;;4906101;29;20048;-67
2023/12/05 12:45:48;;;;;;;42.47;19.33;;;1.90;99.90;;;;;;4902781;29;20032;-65
2023/12/05 12:48:14;;;;;;;41.58;19.38;;;1.90;99.90;;;;;;4901682;29;20124;-65
2023/12/05 12:50:40;;;;;;;39.90;19.50;;;1.90;99.90;;;;;;4904026;29;20131;-66
2023/12/05 12:53:06;;;;;;;41.50;19.02;;;1.90;99.90;;;;;;4902596;29;20047;-66
2023/12/05 12:55:33;;;;;;;46.17;20.83;;;1.90;99.90;;;;;;4870298;29;20043;-69
2023/12/05 12:57:59;;;;;;;46.70;20.20;;;1.90;99.90;;;;;;4885581;29;20052;-69